sensor_id;sensor_type;location;lat;lon;timestamp;temperature;humidity
65369;HTU21D;51970;53.484;49.488;2022-12-18T00:01:01;-0.69;80.29
65369;HTU21D;51970;53.484;49.488;2022-12-18T00:03:35;-0.69;80.46
65369;HTU21D;51970;53.484;49.488;2022-12-18T00:06:02;-0.71;80.51
65369;HTU21D;51970;53.484;49.488;2022-12-18T00:08:28;-0.66;80.52
65369;HTU21D;51970;53.484;49.488;2022-12-18T00:10:54;-0.68;80.33
65369;HTU21D;51970;53.484;49.488;2022-12-18T00:13:20;-0.69;80.56
65369;HTU21D;51970;53.484;49.488;2022-12-18T00:15:46;-0.68;80.15
65369;HTU21D;51970;53.484;49.488;2022-12-18T00:18:12;-0.71;80.36
65369;HTU21D;51970;53.484;49.488;2022-12-18T00:20:40;-0.64;79.88
65369;HTU21D;51970;53.484;49.488;2022-12-18T00:23:06;-0.58;79.25
65369;HTU21D;51970;53.484;49.488;2022-12-18T00:25:34;-0.61;79.49
65369;HTU21D;51970;53.484;49.488;2022-12-18T00:28:02;-0.64;79.41
65369;HTU21D;51970;53.484;49.488;2022-12-18T00:30:28;-0.52;79.24
65369;HTU21D;51970;53.484;49.488;2022-12-18T00:32:55;-0.49;79.01
65369;HTU21D;51970;53.484;49.488;2022-12-18T00:35:21;-0.46;79.01
65369;HTU21D;51970;53.484;49.488;2022-12-18T00:37:47;-0.53;79.20
65369;HTU21D;51970;53.484;49.488;2022-12-18T00:40:13;-0.64;79.42
65369;HTU21D;51970;53.484;49.488;2022-12-18T00:42:40;-0.66;80.04
65369;HTU21D;51970;53.484;49.488;2022-12-18T00:45:31;-0.71;80.22
65369;HTU21D;51970;53.484;49.488;2022-12-18T00:47:57;-0.68;80.45
65369;HTU21D;51970;53.484;49.488;2022-12-18T00:50:24;-0.67;80.60
65369;HTU21D;51970;53.484;49.488;2022-12-18T00:52:51;-0.59;80.77
65369;HTU21D;51970;53.484;49.488;2022-12-18T00:55:18;-0.60;81.20
65369;HTU21D;51970;53.484;49.488;2022-12-18T00:57:44;-0.66;81.72
65369;HTU21D;51970;53.484;49.488;2022-12-18T01:00:13;-0.62;82.33
65369;HTU21D;51970;53.484;49.488;2022-12-18T01:02:40;-0.54;82.10
65369;HTU21D;51970;53.484;49.488;2022-12-18T01:05:07;-0.52;82.01
65369;HTU21D;51970;53.484;49.488;2022-12-18T01:07:33;-0.55;82.01
65369;HTU21D;51970;53.484;49.488;2022-12-18T01:09:59;-0.60;82.19
65369;HTU21D;51970;53.484;49.488;2022-12-18T01:12:26;-0.62;82.56
65369;HTU21D;51970;53.484;49.488;2022-12-18T01:14:52;-0.58;82.70
65369;HTU21D;51970;53.484;49.488;2022-12-18T01:17:18;-0.55;82.72
65369;HTU21D;51970;53.484;49.488;2022-12-18T01:19:44;-0.55;82.78
65369;HTU21D;51970;53.484;49.488;2022-12-18T01:22:10;-0.57;83.14
65369;HTU21D;51970;53.484;49.488;2022-12-18T01:24:36;-0.56;83.26
65369;HTU21D;51970;53.484;49.488;2022-12-18T01:27:02;-0.56;83.13
65369;HTU21D;51970;53.484;49.488;2022-12-18T01:29:28;-0.56;83.38
65369;HTU21D;51970;53.484;49.488;2022-12-18T01:31:55;-0.58;83.02
65369;HTU21D;51970;53.484;49.488;2022-12-18T01:34:24;-0.55;83.49
65369;HTU21D;51970;53.484;49.488;2022-12-18T01:36:50;-0.45;83.29
65369;HTU21D;51970;53.484;49.488;2022-12-18T01:39:18;-0.47;83.29
65369;HTU21D;51970;53.484;49.488;2022-12-18T01:41:45;-0.56;83.40
65369;HTU21D;51970;53.484;49.488;2022-12-18T01:50:39;-0.58;84.04
65369;HTU21D;51970;53.484;49.488;2022-12-18T01:53:11;-0.56;83.94
65369;HTU21D;51970;53.484;49.488;2022-12-18T01:55:49;-0.56;83.84
65369;HTU21D;51970;53.484;49.488;2022-12-18T01:58:18;-0.53;83.61
65369;HTU21D;51970;53.484;49.488;2022-12-18T02:00:45;-0.52;83.73
65369;HTU21D;51970;53.484;49.488;2022-12-18T02:03:11;-0.52;83.46
65369;HTU21D;51970;53.484;49.488;2022-12-18T02:14:19;-0.60;83.16
65369;HTU21D;51970;53.484;49.488;2022-12-18T02:22:55;-0.62;83.30
65369;HTU21D;51970;53.484;49.488;2022-12-18T02:28:11;-0.50;82.74
65369;HTU21D;51970;53.484;49.488;2022-12-18T02:30:40;-0.52;82.65
65369;HTU21D;51970;53.484;49.488;2022-12-18T02:33:09;-0.51;82.76
65369;HTU21D;51970;53.484;49.488;2022-12-18T02:35:38;-0.46;82.56
65369;HTU21D;51970;53.484;49.488;2022-12-18T02:38:06;-0.43;82.59
65369;HTU21D;51970;53.484;49.488;2022-12-18T02:40:32;-0.51;83.13
65369;HTU21D;51970;53.484;49.488;2022-12-18T02:43:09;-0.50;82.74
65369;HTU21D;51970;53.484;49.488;2022-12-18T02:45:35;-0.40;81.90
65369;HTU21D;51970;53.484;49.488;2022-12-18T02:48:02;-0.49;82.08
65369;HTU21D;51970;53.484;49.488;2022-12-18T02:50:38;-0.50;82.70
65369;HTU21D;51970;53.484;49.488;2022-12-18T02:56:20;-0.49;82.86
65369;HTU21D;51970;53.484;49.488;2022-12-18T02:59:12;-0.45;83.14
65369;HTU21D;51970;53.484;49.488;2022-12-18T03:04:39;-0.44;83.75
65369;HTU21D;51970;53.484;49.488;2022-12-18T03:07:15;-0.46;83.80
65369;HTU21D;51970;53.484;49.488;2022-12-18T03:09:47;-0.43;83.88
65369;HTU21D;51970;53.484;49.488;2022-12-18T03:12:33;-0.39;84.10
65369;HTU21D;51970;53.484;49.488;2022-12-18T03:15:10;-0.34;84.00
65369;HTU21D;51970;53.484;49.488;2022-12-18T03:17:40;-0.32;84.16
65369;HTU21D;51970;53.484;49.488;2022-12-18T03:20:17;-0.25;84.48
65369;HTU21D;51970;53.484;49.488;2022-12-18T03:22:47;-0.22;84.39
65369;HTU21D;51970;53.484;49.488;2022-12-18T03:25:16;-0.20;84.26
65369;HTU21D;51970;53.484;49.488;2022-12-18T03:27:48;-0.20;84.26
65369;HTU21D;51970;53.484;49.488;2022-12-18T03:30:16;-0.19;84.38
65369;HTU21D;51970;53.484;49.488;2022-12-18T03:35:21;-0.08;84.74
65369;HTU21D;51970;53.484;49.488;2022-12-18T03:37:49;-0.07;84.90
65369;HTU21D;51970;53.484;49.488;2022-12-18T03:40:16;-0.10;85.08
65369;HTU21D;51970;53.484;49.488;2022-12-18T03:42:56;-0.10;85.24
65369;HTU21D;51970;53.484;49.488;2022-12-18T03:45:50;-0.08;85.50
65369;HTU21D;51970;53.484;49.488;2022-12-18T03:48:45;-0.07;85.97
65369;HTU21D;51970;53.484;49.488;2022-12-18T03:54:00;0.03;86.24
65369;HTU21D;51970;53.484;49.488;2022-12-18T03:56:31;-0.05;86.31
65369;HTU21D;51970;53.484;49.488;2022-12-18T03:59:02;-0.01;86.22
65369;HTU21D;51970;53.484;49.488;2022-12-18T04:01:39;-0.00;86.11
65369;HTU21D;51970;53.484;49.488;2022-12-18T04:04:30;0.17;85.80
65369;HTU21D;51970;53.484;49.488;2022-12-18T04:07:03;0.19;85.69
65369;HTU21D;51970;53.484;49.488;2022-12-18T04:09:35;0.20;85.94
65369;HTU21D;51970;53.484;49.488;2022-12-18T04:12:03;0.28;85.88
65369;HTU21D;51970;53.484;49.488;2022-12-18T04:14:38;0.44;85.90
65369;HTU21D;51970;53.484;49.488;2022-12-18T04:17:28;0.32;85.98
65369;HTU21D;51970;53.484;49.488;2022-12-18T04:20:03;0.34;86.17
65369;HTU21D;51970;53.484;49.488;2022-12-18T04:22:33;0.42;86.14
65369;HTU21D;51970;53.484;49.488;2022-12-18T04:25:37;0.45;86.05
65369;HTU21D;51970;53.484;49.488;2022-12-18T04:28:50;0.50;85.89
65369;HTU21D;51970;53.484;49.488;2022-12-18T04:31:43;0.59;85.89
65369;HTU21D;51970;53.484;49.488;2022-12-18T04:34:24;0.76;85.39
65369;HTU21D;51970;53.484;49.488;2022-12-18T04:36:59;0.61;85.55
65369;HTU21D;51970;53.484;49.488;2022-12-18T04:39:55;0.65;85.58
65369;HTU21D;51970;53.484;49.488;2022-12-18T04:42:22;0.71;85.42
65369;HTU21D;51970;53.484;49.488;2022-12-18T04:44:55;0.69;85.52
65369;HTU21D;51970;53.484;49.488;2022-12-18T04:47:24;0.64;85.74
65369;HTU21D;51970;53.484;49.488;2022-12-18T04:50:16;0.74;85.55
65369;HTU21D;51970;53.484;49.488;2022-12-18T04:52:43;0.79;85.69
65369;HTU21D;51970;53.484;49.488;2022-12-18T04:55:13;0.81;85.80
65369;HTU21D;51970;53.484;49.488;2022-12-18T04:57:43;0.77;85.77
65369;HTU21D;51970;53.484;49.488;2022-12-18T05:00:12;0.83;85.87
65369;HTU21D;51970;53.484;49.488;2022-12-18T05:03:02;0.92;85.78
65369;HTU21D;51970;53.484;49.488;2022-12-18T05:05:29;1.07;85.06
65369;HTU21D;51970;53.484;49.488;2022-12-18T05:07:56;1.07;84.62
65369;HTU21D;51970;53.484;49.488;2022-12-18T05:10:22;0.98;84.96
65369;HTU21D;51970;53.484;49.488;2022-12-18T05:12:49;1.01;84.98
65369;HTU21D;51970;53.484;49.488;2022-12-18T05:15:30;1.19;84.92
65369;HTU21D;51970;53.484;49.488;2022-12-18T05:17:58;1.12;85.00
65369;HTU21D;51970;53.484;49.488;2022-12-18T05:20:27;1.18;84.48
65369;HTU21D;51970;53.484;49.488;2022-12-18T05:22:53;1.34;83.90
65369;HTU21D;51970;53.484;49.488;2022-12-18T05:25:21;1.24;84.05
65369;HTU21D;51970;53.484;49.488;2022-12-18T05:27:48;1.19;84.48
65369;HTU21D;51970;53.484;49.488;2022-12-18T05:30:19;1.36;83.92
65369;HTU21D;51970;53.484;49.488;2022-12-18T05:32:46;1.35;83.69
65369;HTU21D;51970;53.484;49.488;2022-12-18T05:35:13;1.31;83.84
65369;HTU21D;51970;53.484;49.488;2022-12-18T05:37:43;1.33;83.64
65369;HTU21D;51970;53.484;49.488;2022-12-18T05:40:19;1.25;83.58
65369;HTU21D;51970;53.484;49.488;2022-12-18T05:43:18;1.06;84.07
65369;HTU21D;51970;53.484;49.488;2022-12-18T05:46:08;1.13;84.35
65369;HTU21D;51970;53.484;49.488;2022-12-18T05:48:35;1.04;84.61
65369;HTU21D;51970;53.484;49.488;2022-12-18T05:51:25;1.04;84.89
65369;HTU21D;51970;53.484;49.488;2022-12-18T05:53:58;1.04;85.19
65369;HTU21D;51970;53.484;49.488;2022-12-18T05:56:27;1.02;85.31
65369;HTU21D;51970;53.484;49.488;2022-12-18T05:59:41;1.02;85.46
65369;HTU21D;51970;53.484;49.488;2022-12-18T06:02:14;1.22;84.56
65369;HTU21D;51970;53.484;49.488;2022-12-18T06:04:44;1.14;84.57
65369;HTU21D;51970;53.484;49.488;2022-12-18T06:07:17;1.17;84.66
65369;HTU21D;51970;53.484;49.488;2022-12-18T06:09:51;1.18;84.76
65369;HTU21D;51970;53.484;49.488;2022-12-18T06:12:21;1.16;84.59
65369;HTU21D;51970;53.484;49.488;2022-12-18T06:14:55;1.03;84.60
65369;HTU21D;51970;53.484;49.488;2022-12-18T06:17:49;1.06;84.58
65369;HTU21D;51970;53.484;49.488;2022-12-18T06:20:28;1.05;84.60
65369;HTU21D;51970;53.484;49.488;2022-12-18T06:23:20;1.01;85.07
65369;HTU21D;51970;53.484;49.488;2022-12-18T06:25:52;1.07;85.60
65369;HTU21D;51970;53.484;49.488;2022-12-18T06:28:21;0.93;85.68
65369;HTU21D;51970;53.484;49.488;2022-12-18T06:31:02;1.13;85.50
65369;HTU21D;51970;53.484;49.488;2022-12-18T06:33:56;1.06;84.71
65369;HTU21D;51970;53.484;49.488;2022-12-18T06:36:42;1.10;84.58
65369;HTU21D;51970;53.484;49.488;2022-12-18T06:39:18;0.99;84.26
65369;HTU21D;51970;53.484;49.488;2022-12-18T06:41:49;1.02;84.00
65369;HTU21D;51970;53.484;49.488;2022-12-18T06:44:22;1.03;84.19
65369;HTU21D;51970;53.484;49.488;2022-12-18T06:47:21;1.01;84.10
65369;HTU21D;51970;53.484;49.488;2022-12-18T06:49:59;1.09;84.30
65369;HTU21D;51970;53.484;49.488;2022-12-18T06:52:34;1.01;83.82
65369;HTU21D;51970;53.484;49.488;2022-12-18T06:58:01;0.99;83.91
65369;HTU21D;51970;53.484;49.488;2022-12-18T07:01:00;1.07;83.57
65369;HTU21D;51970;53.484;49.488;2022-12-18T07:03:30;1.07;83.18
65369;HTU21D;51970;53.484;49.488;2022-12-18T07:06:00;1.05;83.26
65369;HTU21D;51970;53.484;49.488;2022-12-18T07:08:46;0.99;83.42
65369;HTU21D;51970;53.484;49.488;2022-12-18T07:11:16;0.95;83.44
65369;HTU21D;51970;53.484;49.488;2022-12-18T07:13:54;1.05;83.41
65369;HTU21D;51970;53.484;49.488;2022-12-18T07:16:52;1.06;83.38
65369;HTU21D;51970;53.484;49.488;2022-12-18T07:19:32;0.98;83.09
65369;HTU21D;51970;53.484;49.488;2022-12-18T07:22:26;1.03;83.13
65369;HTU21D;51970;53.484;49.488;2022-12-18T07:25:41;0.99;82.86
65369;HTU21D;51970;53.484;49.488;2022-12-18T07:28:58;1.03;81.97
65369;HTU21D;51970;53.484;49.488;2022-12-18T07:34:31;1.01;82.34
65369;HTU21D;51970;53.484;49.488;2022-12-18T07:38:10;1.04;82.39
65369;HTU21D;51970;53.484;49.488;2022-12-18T07:41:25;1.05;82.84
65369;HTU21D;51970;53.484;49.488;2022-12-18T07:45:27;1.05;82.29
65369;HTU21D;51970;53.484;49.488;2022-12-18T07:51:46;1.20;82.33
65369;HTU21D;51970;53.484;49.488;2022-12-18T07:54:41;1.29;81.83
65369;HTU21D;51970;53.484;49.488;2022-12-18T07:57:27;1.27;81.49
65369;HTU21D;51970;53.484;49.488;2022-12-18T08:01:04;1.32;82.25
65369;HTU21D;51970;53.484;49.488;2022-12-18T08:03:32;1.29;81.96
65369;HTU21D;51970;53.484;49.488;2022-12-18T08:06:40;1.19;82.83
65369;HTU21D;51970;53.484;49.488;2022-12-18T08:09:14;1.12;83.15
65369;HTU21D;51970;53.484;49.488;2022-12-18T08:12:03;1.10;83.75
65369;HTU21D;51970;53.484;49.488;2022-12-18T08:15:07;1.10;83.65
65369;HTU21D;51970;53.484;49.488;2022-12-18T08:17:58;1.20;83.69
65369;HTU21D;51970;53.484;49.488;2022-12-18T08:20:35;1.36;83.16
65369;HTU21D;51970;53.484;49.488;2022-12-18T08:23:20;1.46;82.97
65369;HTU21D;51970;53.484;49.488;2022-12-18T08:26:16;1.47;82.76
65369;HTU21D;51970;53.484;49.488;2022-12-18T08:28:59;1.40;83.30
65369;HTU21D;51970;53.484;49.488;2022-12-18T08:31:38;1.38;84.26
65369;HTU21D;51970;53.484;49.488;2022-12-18T08:34:26;1.56;84.52
65369;HTU21D;51970;53.484;49.488;2022-12-18T08:37:34;1.39;84.51
65369;HTU21D;51970;53.484;49.488;2022-12-18T08:40:05;1.57;84.44
65369;HTU21D;51970;53.484;49.488;2022-12-18T08:42:35;1.43;84.29
65369;HTU21D;51970;53.484;49.488;2022-12-18T08:45:31;1.45;85.00
65369;HTU21D;51970;53.484;49.488;2022-12-18T08:48:10;1.38;85.31
65369;HTU21D;51970;53.484;49.488;2022-12-18T08:51:15;1.33;85.61
65369;HTU21D;51970;53.484;49.488;2022-12-18T08:53:46;1.36;85.42
65369;HTU21D;51970;53.484;49.488;2022-12-18T08:56:39;1.47;85.58
65369;HTU21D;51970;53.484;49.488;2022-12-18T08:59:12;1.29;85.71
65369;HTU21D;51970;53.484;49.488;2022-12-18T09:01:43;1.46;84.99
65369;HTU21D;51970;53.484;49.488;2022-12-18T09:04:37;1.51;84.71
65369;HTU21D;51970;53.484;49.488;2022-12-18T09:07:13;1.34;84.81
65369;HTU21D;51970;53.484;49.488;2022-12-18T09:09:59;1.41;84.81
65369;HTU21D;51970;53.484;49.488;2022-12-18T09:12:26;1.50;84.89
65369;HTU21D;51970;53.484;49.488;2022-12-18T09:14:53;1.40;85.70
65369;HTU21D;51970;53.484;49.488;2022-12-18T09:17:20;1.37;86.58
65369;HTU21D;51970;53.484;49.488;2022-12-18T09:19:53;1.40;86.41
65369;HTU21D;51970;53.484;49.488;2022-12-18T09:22:19;1.56;86.12
65369;HTU21D;51970;53.484;49.488;2022-12-18T09:24:45;1.60;86.39
65369;HTU21D;51970;53.484;49.488;2022-12-18T09:27:11;1.69;85.78
65369;HTU21D;51970;53.484;49.488;2022-12-18T09:29:37;1.82;85.80
65369;HTU21D;51970;53.484;49.488;2022-12-18T09:32:20;1.52;86.40
65369;HTU21D;51970;53.484;49.488;2022-12-18T09:35:08;1.43;86.70
65369;HTU21D;51970;53.484;49.488;2022-12-18T09:37:38;1.56;86.39
65369;HTU21D;51970;53.484;49.488;2022-12-18T09:44:23;1.66;86.38
65369;HTU21D;51970;53.484;49.488;2022-12-18T09:47:28;1.60;86.13
65369;HTU21D;51970;53.484;49.488;2022-12-18T09:50:55;1.67;86.89
65369;HTU21D;51970;53.484;49.488;2022-12-18T09:53:34;1.61;87.38
65369;HTU21D;51970;53.484;49.488;2022-12-18T09:56:04;1.51;87.54
65369;HTU21D;51970;53.484;49.488;2022-12-18T09:59:00;1.54;87.55
65369;HTU21D;51970;53.484;49.488;2022-12-18T10:01:55;1.51;87.28
65369;HTU21D;51970;53.484;49.488;2022-12-18T10:04:28;1.57;86.14
65369;HTU21D;51970;53.484;49.488;2022-12-18T10:07:16;1.65;85.52
65369;HTU21D;51970;53.484;49.488;2022-12-18T10:12:43;1.70;85.74
65369;HTU21D;51970;53.484;49.488;2022-12-18T10:27:34;1.49;88.21
65369;HTU21D;51970;53.484;49.488;2022-12-18T10:30:26;1.64;88.45
65369;HTU21D;51970;53.484;49.488;2022-12-18T10:33:29;1.50;88.32
65369;HTU21D;51970;53.484;49.488;2022-12-18T10:36:26;1.50;88.14
65369;HTU21D;51970;53.484;49.488;2022-12-18T10:39:37;1.50;87.92
65369;HTU21D;51970;53.484;49.488;2022-12-18T10:42:23;1.52;87.87
65369;HTU21D;51970;53.484;49.488;2022-12-18T10:45:05;1.57;87.78
65369;HTU21D;51970;53.484;49.488;2022-12-18T10:47:37;1.81;87.02
65369;HTU21D;51970;53.484;49.488;2022-12-18T10:50:28;1.92;85.86
65369;HTU21D;51970;53.484;49.488;2022-12-18T10:53:19;1.76;86.38
65369;HTU21D;51970;53.484;49.488;2022-12-18T10:56:43;2.15;86.59
65369;HTU21D;51970;53.484;49.488;2022-12-18T11:00:29;1.77;86.29
65369;HTU21D;51970;53.484;49.488;2022-12-18T11:03:07;1.84;86.76
65369;HTU21D;51970;53.484;49.488;2022-12-18T11:06:27;1.77;86.28
65369;HTU21D;51970;53.484;49.488;2022-12-18T11:09:38;1.86;85.78
65369;HTU21D;51970;53.484;49.488;2022-12-18T11:12:21;1.81;86.32
65369;HTU21D;51970;53.484;49.488;2022-12-18T11:15:20;1.80;86.17
65369;HTU21D;51970;53.484;49.488;2022-12-18T11:21:58;1.81;86.15
65369;HTU21D;51970;53.484;49.488;2022-12-18T11:36:14;1.91;85.55
65369;HTU21D;51970;53.484;49.488;2022-12-18T12:03:18;1.78;86.57
65369;HTU21D;51970;53.484;49.488;2022-12-18T12:24:27;1.94;86.06
65369;HTU21D;51970;53.484;49.488;2022-12-18T12:37:17;1.96;86.09
65369;HTU21D;51970;53.484;49.488;2022-12-18T12:40:06;1.90;86.21
65369;HTU21D;51970;53.484;49.488;2022-12-18T12:43:47;1.91;86.67
65369;HTU21D;51970;53.484;49.488;2022-12-18T12:46:46;1.81;87.22
65369;HTU21D;51970;53.484;49.488;2022-12-18T12:50:23;1.82;87.45
65369;HTU21D;51970;53.484;49.488;2022-12-18T12:53:05;1.80;87.54
65369;HTU21D;51970;53.484;49.488;2022-12-18T12:56:04;1.78;87.44
65369;HTU21D;51970;53.484;49.488;2022-12-18T13:00:00;1.81;87.58
65369;HTU21D;51970;53.484;49.488;2022-12-18T13:03:08;1.97;86.86
65369;HTU21D;51970;53.484;49.488;2022-12-18T13:09:24;1.87;87.29
65369;HTU21D;51970;53.484;49.488;2022-12-18T13:16:35;1.87;87.56
65369;HTU21D;51970;53.484;49.488;2022-12-18T13:20:15;1.86;87.78
65369;HTU21D;51970;53.484;49.488;2022-12-18T13:23:53;1.93;87.36
65369;HTU21D;51970;53.484;49.488;2022-12-18T13:31:57;1.96;87.26
65369;HTU21D;51970;53.484;49.488;2022-12-18T13:34:40;1.94;87.59
65369;HTU21D;51970;53.484;49.488;2022-12-18T13:37:36;1.97;87.56
65369;HTU21D;51970;53.484;49.488;2022-12-18T13:43:51;1.99;87.80
65369;HTU21D;51970;53.484;49.488;2022-12-18T13:47:40;1.95;88.08
65369;HTU21D;51970;53.484;49.488;2022-12-18T13:51:46;1.98;88.31
65369;HTU21D;51970;53.484;49.488;2022-12-18T13:55:21;1.98;88.41
65369;HTU21D;51970;53.484;49.488;2022-12-18T13:58:32;2.00;88.27
65369;HTU21D;51970;53.484;49.488;2022-12-18T14:02:20;1.91;88.35
65369;HTU21D;51970;53.484;49.488;2022-12-18T14:04:56;1.87;88.53
65369;HTU21D;51970;53.484;49.488;2022-12-18T14:08:42;1.88;88.60
65369;HTU21D;51970;53.484;49.488;2022-12-18T14:11:25;1.88;88.94
65369;HTU21D;51970;53.484;49.488;2022-12-18T14:14:16;2.03;88.62
65369;HTU21D;51970;53.484;49.488;2022-12-18T14:17:17;1.92;88.61
65369;HTU21D;51970;53.484;49.488;2022-12-18T14:20:34;1.88;88.79
65369;HTU21D;51970;53.484;49.488;2022-12-18T14:24:17;1.87;89.05
65369;HTU21D;51970;53.484;49.488;2022-12-18T14:27:25;1.93;89.15
65369;HTU21D;51970;53.484;49.488;2022-12-18T14:34:08;1.97;89.15
65369;HTU21D;51970;53.484;49.488;2022-12-18T14:41:18;1.93;89.17
65369;HTU21D;51970;53.484;49.488;2022-12-18T14:45:50;2.02;89.18
65369;HTU21D;51970;53.484;49.488;2022-12-18T14:48:39;1.93;88.98
65369;HTU21D;51970;53.484;49.488;2022-12-18T14:54:58;1.92;89.09
65369;HTU21D;51970;53.484;49.488;2022-12-18T14:57:55;1.90;89.41
65369;HTU21D;51970;53.484;49.488;2022-12-18T15:01:18;1.86;89.74
65369;HTU21D;51970;53.484;49.488;2022-12-18T15:05:05;1.90;89.70
65369;HTU21D;51970;53.484;49.488;2022-12-18T15:09:05;1.91;89.50
65369;HTU21D;51970;53.484;49.488;2022-12-18T15:12:41;1.93;89.06
65369;HTU21D;51970;53.484;49.488;2022-12-18T15:16:52;1.94;88.92
65369;HTU21D;51970;53.484;49.488;2022-12-18T15:21:15;1.94;89.16
65369;HTU21D;51970;53.484;49.488;2022-12-18T15:24:36;1.90;89.81
65369;HTU21D;51970;53.484;49.488;2022-12-18T15:30:36;1.93;90.15
65369;HTU21D;51970;53.484;49.488;2022-12-18T15:34:24;1.95;89.96
65369;HTU21D;51970;53.484;49.488;2022-12-18T15:38:01;1.95;89.95
65369;HTU21D;51970;53.484;49.488;2022-12-18T15:41:30;1.95;89.99
65369;HTU21D;51970;53.484;49.488;2022-12-18T15:44:27;2.08;90.05
65369;HTU21D;51970;53.484;49.488;2022-12-18T15:48:02;1.95;90.15
65369;HTU21D;51970;53.484;49.488;2022-12-18T15:51:35;1.99;90.12
65369;HTU21D;51970;53.484;49.488;2022-12-18T15:54:33;2.05;89.74
65369;HTU21D;51970;53.484;49.488;2022-12-18T15:58:55;2.08;89.18
65369;HTU21D;51970;53.484;49.488;2022-12-18T16:01:56;2.05;88.83
65369;HTU21D;51970;53.484;49.488;2022-12-18T16:06:10;2.12;88.72
65369;HTU21D;51970;53.484;49.488;2022-12-18T16:08:57;2.09;88.59
65369;HTU21D;51970;53.484;49.488;2022-12-18T16:11:51;2.15;88.38
65369;HTU21D;51970;53.484;49.488;2022-12-18T16:14:27;2.12;88.29
65369;HTU21D;51970;53.484;49.488;2022-12-18T16:17:17;2.15;88.24
65369;HTU21D;51970;53.484;49.488;2022-12-18T16:20:20;2.15;88.25
65369;HTU21D;51970;53.484;49.488;2022-12-18T16:22:54;2.16;88.33
65369;HTU21D;51970;53.484;49.488;2022-12-18T16:26:08;2.13;88.52
65369;HTU21D;51970;53.484;49.488;2022-12-18T16:28:36;2.13;88.96
65369;HTU21D;51970;53.484;49.488;2022-12-18T16:31:26;2.12;89.22
65369;HTU21D;51970;53.484;49.488;2022-12-18T16:34:42;2.15;89.29
65369;HTU21D;51970;53.484;49.488;2022-12-18T16:37:13;2.10;89.51
65369;HTU21D;51970;53.484;49.488;2022-12-18T16:40:02;2.09;89.77
65369;HTU21D;51970;53.484;49.488;2022-12-18T16:42:55;2.09;90.00
65369;HTU21D;51970;53.484;49.488;2022-12-18T16:45:22;2.12;89.87
65369;HTU21D;51970;53.484;49.488;2022-12-18T16:48:04;2.27;90.04
65369;HTU21D;51970;53.484;49.488;2022-12-18T16:50:59;2.19;90.15
65369;HTU21D;51970;53.484;49.488;2022-12-18T16:53:28;2.10;90.23
65369;HTU21D;51970;53.484;49.488;2022-12-18T16:56:23;2.11;90.14
65369;HTU21D;51970;53.484;49.488;2022-12-18T16:58:55;2.10;90.15
65369;HTU21D;51970;53.484;49.488;2022-12-18T17:03:02;2.20;90.41
65369;HTU21D;51970;53.484;49.488;2022-12-18T17:06:49;2.07;90.49
65369;HTU21D;51970;53.484;49.488;2022-12-18T17:09:40;2.07;90.54
65369;HTU21D;51970;53.484;49.488;2022-12-18T17:12:12;2.00;90.60
65369;HTU21D;51970;53.484;49.488;2022-12-18T17:15:01;1.99;90.73
65369;HTU21D;51970;53.484;49.488;2022-12-18T17:17:40;2.02;90.69
65369;HTU21D;51970;53.484;49.488;2022-12-18T17:20:46;2.06;90.59
65369;HTU21D;51970;53.484;49.488;2022-12-18T17:23:21;2.07;90.53
65369;HTU21D;51970;53.484;49.488;2022-12-18T17:25:57;2.05;90.53
65369;HTU21D;51970;53.484;49.488;2022-12-18T17:28:32;2.09;90.54
65369;HTU21D;51970;53.484;49.488;2022-12-18T17:31:43;2.11;90.39
65369;HTU21D;51970;53.484;49.488;2022-12-18T17:34:15;2.13;90.29
65369;HTU21D;51970;53.484;49.488;2022-12-18T17:36:44;2.12;90.28
65369;HTU21D;51970;53.484;49.488;2022-12-18T17:39:22;2.12;90.28
65369;HTU21D;51970;53.484;49.488;2022-12-18T17:42:14;2.09;90.34
65369;HTU21D;51970;53.484;49.488;2022-12-18T17:45:16;2.13;90.43
65369;HTU21D;51970;53.484;49.488;2022-12-18T17:48:16;2.15;90.48
65369;HTU21D;51970;53.484;49.488;2022-12-18T17:51:33;2.14;90.41
65369;HTU21D;51970;53.484;49.488;2022-12-18T17:54:11;2.14;90.47
65369;HTU21D;51970;53.484;49.488;2022-12-18T17:57:11;2.14;90.57
65369;HTU21D;51970;53.484;49.488;2022-12-18T17:59:58;2.13;90.60
65369;HTU21D;51970;53.484;49.488;2022-12-18T18:02:28;2.13;90.63
65369;HTU21D;51970;53.484;49.488;2022-12-18T18:05:01;2.17;90.57
65369;HTU21D;51970;53.484;49.488;2022-12-18T18:07:39;2.20;90.43
65369;HTU21D;51970;53.484;49.488;2022-12-18T18:10:38;2.20;90.31
65369;HTU21D;51970;53.484;49.488;2022-12-18T18:13:23;2.19;90.23
65369;HTU21D;51970;53.484;49.488;2022-12-18T18:16:37;2.16;90.29
65369;HTU21D;51970;53.484;49.488;2022-12-18T18:19:15;2.16;90.31
65369;HTU21D;51970;53.484;49.488;2022-12-18T18:22:07;2.16;90.26
65369;HTU21D;51970;53.484;49.488;2022-12-18T18:24:35;2.20;90.18
65369;HTU21D;51970;53.484;49.488;2022-12-18T18:27:02;2.22;90.02
65369;HTU21D;51970;53.484;49.488;2022-12-18T18:30:04;2.26;89.88
65369;HTU21D;51970;53.484;49.488;2022-12-18T18:32:46;2.22;89.80
65369;HTU21D;51970;53.484;49.488;2022-12-18T18:35:20;2.22;89.86
65369;HTU21D;51970;53.484;49.488;2022-12-18T18:38:09;2.26;89.90
65369;HTU21D;51970;53.484;49.488;2022-12-18T18:40:37;2.26;89.97
65369;HTU21D;51970;53.484;49.488;2022-12-18T18:43:18;2.26;89.89
65369;HTU21D;51970;53.484;49.488;2022-12-18T18:45:45;2.26;89.91
65369;HTU21D;51970;53.484;49.488;2022-12-18T18:48:12;2.28;89.94
65369;HTU21D;51970;53.484;49.488;2022-12-18T18:50:38;2.25;89.82
65369;HTU21D;51970;53.484;49.488;2022-12-18T18:53:09;2.23;89.80
65369;HTU21D;51970;53.484;49.488;2022-12-18T18:55:44;2.23;89.97
65369;HTU21D;51970;53.484;49.488;2022-12-18T18:58:12;2.21;89.88
65369;HTU21D;51970;53.484;49.488;2022-12-18T19:01:17;2.29;89.79
65369;HTU21D;51970;53.484;49.488;2022-12-18T19:03:53;2.26;89.73
65369;HTU21D;51970;53.484;49.488;2022-12-18T19:06:31;2.29;89.85
65369;HTU21D;51970;53.484;49.488;2022-12-18T19:09:03;2.26;89.79
65369;HTU21D;51970;53.484;49.488;2022-12-18T19:11:32;2.25;90.03
65369;HTU21D;51970;53.484;49.488;2022-12-18T19:14:36;2.35;90.19
65369;HTU21D;51970;53.484;49.488;2022-12-18T19:17:07;2.25;90.08
65369;HTU21D;51970;53.484;49.488;2022-12-18T19:19:34;2.24;90.29
65369;HTU21D;51970;53.484;49.488;2022-12-18T19:22:06;2.21;90.31
65369;HTU21D;51970;53.484;49.488;2022-12-18T19:24:32;2.22;90.47
65369;HTU21D;51970;53.484;49.488;2022-12-18T19:26:58;2.29;90.18
65369;HTU21D;51970;53.484;49.488;2022-12-18T19:29:29;2.25;90.17
65369;HTU21D;51970;53.484;49.488;2022-12-18T19:31:56;2.20;90.41
65369;HTU21D;51970;53.484;49.488;2022-12-18T19:34:22;2.17;90.57
65369;HTU21D;51970;53.484;49.488;2022-12-18T19:36:48;2.21;90.65
65369;HTU21D;51970;53.484;49.488;2022-12-18T19:39:16;2.22;90.76
65369;HTU21D;51970;53.484;49.488;2022-12-18T19:41:43;2.19;90.73
65369;HTU21D;51970;53.484;49.488;2022-12-18T19:44:14;2.19;90.70
65369;HTU21D;51970;53.484;49.488;2022-12-18T19:46:42;2.34;90.67
65369;HTU21D;51970;53.484;49.488;2022-12-18T19:49:12;2.20;90.68
65369;HTU21D;51970;53.484;49.488;2022-12-18T19:51:39;2.24;90.47